sensor_id;sensor_type;location;lat;lon;timestamp;pressure;altitude;pressure_sealevel;temperature;humidity
34197;BME280;36594;45.192;5.722;2023-03-03T00:02:20;99270.27;;;19.43;30.32
34197;BME280;36594;45.192;5.722;2023-03-03T00:05:10;99274.44;;;19.45;30.33
34197;BME280;36594;45.192;5.722;2023-03-03T00:08:00;99270.67;;;19.46;30.30
34197;BME280;36594;45.192;5.722;2023-03-03T00:10:49;99273.92;;;19.46;30.30
34197;BME280;36594;45.192;5.722;2023-03-03T00:13:51;99277.39;;;19.44;30.32
34197;BME280;36594;45.192;5.722;2023-03-03T00:16:40;99270.78;;;19.42;30.33
34197;BME280;36594;45.192;5.722;2023-03-03T00:19:30;99269.42;;;19.42;30.33
34197;BME280;36594;45.192;5.722;2023-03-03T00:22:28;99273.31;;;19.44;30.36
34197;BME280;36594;45.192;5.722;2023-03-03T00:28:24;99279.51;;;19.42;30.38
34197;BME280;36594;45.192;5.722;2023-03-03T00:31:24;99277.83;;;19.41;30.42
34197;BME280;36594;45.192;5.722;2023-03-03T00:37:32;99275.63;;;19.40;30.42
34197;BME280;36594;45.192;5.722;2023-03-03T00:40:25;99277.21;;;19.39;30.43
34197;BME280;36594;45.192;5.722;2023-03-03T00:46:14;99286.74;;;19.39;30.49
34197;BME280;36594;45.192;5.722;2023-03-03T00:49:04;99283.18;;;19.38;30.47
34197;BME280;36594;45.192;5.722;2023-03-03T00:51:53;99287.88;;;19.40;30.46
34197;BME280;36594;45.192;5.722;2023-03-03T00:54:41;99284.95;;;19.42;30.43
34197;BME280;36594;45.192;5.722;2023-03-03T00:57:30;99288.72;;;19.41;30.41
34197;BME280;36594;45.192;5.722;2023-03-03T01:00:19;99287.97;;;19.43;30.44
34197;BME280;36594;45.192;5.722;2023-03-03T01:03:12;99289.56;;;19.41;30.43
34197;BME280;36594;45.192;5.722;2023-03-03T01:05:59;99284.41;;;19.42;30.44
34197;BME280;36594;45.192;5.722;2023-03-03T01:08:47;99283.13;;;19.45;30.42
34197;BME280;36594;45.192;5.722;2023-03-03T01:11:35;99295.10;;;19.44;30.40
34197;BME280;36594;45.192;5.722;2023-03-03T01:14:24;99286.31;;;19.42;30.42
34197;BME280;36594;45.192;5.722;2023-03-03T01:17:12;99292.89;;;19.43;30.43
34197;BME280;36594;45.192;5.722;2023-03-03T01:20:01;99296.47;;;19.44;30.39
34197;BME280;36594;45.192;5.722;2023-03-03T01:22:50;99305.16;;;19.43;30.43
34197;BME280;36594;45.192;5.722;2023-03-03T01:25:39;99302.66;;;19.42;30.43
34197;BME280;36594;45.192;5.722;2023-03-03T01:28:27;99296.47;;;19.44;30.44
34197;BME280;36594;45.192;5.722;2023-03-03T01:31:15;99305.16;;;19.43;30.42
34197;BME280;36594;45.192;5.722;2023-03-03T01:34:04;99304.83;;;19.42;30.43
34197;BME280;36594;45.192;5.722;2023-03-03T01:36:53;99305.06;;;19.41;30.44
34197;BME280;36594;45.192;5.722;2023-03-03T01:39:41;99308.11;;;19.42;30.45
34197;BME280;36594;45.192;5.722;2023-03-03T01:42:30;99299.47;;;19.45;30.42
34197;BME280;36594;45.192;5.722;2023-03-03T01:45:24;99304.08;;;19.44;30.43
34197;BME280;36594;45.192;5.722;2023-03-03T01:48:27;99305.06;;;19.41;30.47
34197;BME280;36594;45.192;5.722;2023-03-03T01:51:17;99309.47;;;19.42;30.45
34197;BME280;36594;45.192;5.722;2023-03-03T01:54:08;99306.74;;;19.42;30.47
34197;BME280;36594;45.192;5.722;2023-03-03T01:57:00;99301.81;;;19.41;30.48
34197;BME280;36594;45.192;5.722;2023-03-03T01:59:50;99300.75;;;19.42;30.45
34197;BME280;36594;45.192;5.722;2023-03-03T02:02:40;99300.13;;;19.40;30.46
34197;BME280;36594;45.192;5.722;2023-03-03T02:05:29;99295.20;;;19.40;30.49
34197;BME280;36594;45.192;5.722;2023-03-03T02:08:20;99299.61;;;19.41;30.51
34197;BME280;36594;45.192;5.722;2023-03-03T02:11:10;99298.58;;;19.42;30.47
34197;BME280;36594;45.192;5.722;2023-03-03T02:13:59;99297.93;;;19.40;30.49
34197;BME280;36594;45.192;5.722;2023-03-03T02:16:48;99300.36;;;19.39;30.51
34197;BME280;36594;45.192;5.722;2023-03-03T02:20:06;99296.28;;;19.39;30.48
34197;BME280;36594;45.192;5.722;2023-03-03T02:23:04;99304.02;;;19.42;30.52
34197;BME280;36594;45.192;5.722;2023-03-03T02:28:48;99300.04;;;19.38;30.52
34197;BME280;36594;45.192;5.722;2023-03-03T02:31:38;99292.62;;;19.36;30.52
34197;BME280;36594;45.192;5.722;2023-03-03T02:34:27;99296.19;;;19.36;30.53
34197;BME280;36594;45.192;5.722;2023-03-03T02:37:16;99296.28;;;19.39;30.49
34197;BME280;36594;45.192;5.722;2023-03-03T02:40:07;99294.91;;;19.39;30.54
34197;BME280;36594;45.192;5.722;2023-03-03T02:42:58;99285.38;;;19.39;30.49
34197;BME280;36594;45.192;5.722;2023-03-03T02:45:48;99289.23;;;19.40;30.49
34197;BME280;36594;45.192;5.722;2023-03-03T02:48:37;99289.23;;;19.40;30.49
34197;BME280;36594;45.192;5.722;2023-03-03T02:51:26;99288.11;;;19.39;30.50
34197;BME280;36594;45.192;5.722;2023-03-03T02:54:16;99290.08;;;19.41;30.45
34197;BME280;36594;45.192;5.722;2023-03-03T02:57:06;99293.13;;;19.42;30.46
34197;BME280;36594;45.192;5.722;2023-03-03T02:59:55;99287.36;;;19.41;30.47
34197;BME280;36594;45.192;5.722;2023-03-03T03:02:43;99293.73;;;19.44;30.43
34197;BME280;36594;45.192;5.722;2023-03-03T03:05:32;99294.78;;;19.43;30.44
34197;BME280;36594;45.192;5.722;2023-03-03T03:08:20;99298.25;;;19.41;30.46
34197;BME280;36594;45.192;5.722;2023-03-03T03:11:09;99295.76;;;19.39;30.49
34197;BME280;36594;45.192;5.722;2023-03-03T03:13:58;99299.09;;;19.41;30.46
34197;BME280;36594;45.192;5.722;2023-03-03T03:16:47;99305.58;;;19.40;30.47
34197;BME280;36594;45.192;5.722;2023-03-03T03:19:35;99301.72;;;19.39;30.49
34197;BME280;36594;45.192;5.722;2023-03-03T03:22:24;99304.73;;;19.40;30.50
34197;BME280;36594;45.192;5.722;2023-03-03T03:25:13;99304.97;;;19.38;30.51
34197;BME280;36594;45.192;5.722;2023-03-03T03:28:02;99307.87;;;19.43;30.45
34197;BME280;36594;45.192;5.722;2023-03-03T03:30:51;99309.47;;;19.42;30.48
34197;BME280;36594;45.192;5.722;2023-03-03T03:33:41;99307.78;;;19.41;30.48
34197;BME280;36594;45.192;5.722;2023-03-03T03:36:30;99308.02;;;19.39;30.49
34197;BME280;36594;45.192;5.722;2023-03-03T03:39:19;99308.53;;;19.39;30.48
34197;BME280;36594;45.192;5.722;2023-03-03T03:42:08;99311.03;;;19.40;30.46
34197;BME280;36594;45.192;5.722;2023-03-03T03:44:58;99306.74;;;19.42;30.46
34197;BME280;36594;45.192;5.722;2023-03-03T03:47:46;99316.34;;;19.44;30.39
34197;BME280;36594;45.192;5.722;2023-03-03T03:50:35;99314.69;;;19.43;30.26
34197;BME280;36594;45.192;5.722;2023-03-03T03:53:26;99320.36;;;19.42;30.25
34197;BME280;36594;45.192;5.722;2023-03-03T03:56:15;99313.84;;;19.43;30.37
34197;BME280;36594;45.192;5.722;2023-03-03T03:59:06;99314.27;;;19.40;30.38
34197;BME280;36594;45.192;5.722;2023-03-03T04:01:56;99312.91;;;19.40;30.43
34197;BME280;36594;45.192;5.722;2023-03-03T04:04:45;99307.46;;;19.40;30.38
34197;BME280;36594;45.192;5.722;2023-03-03T04:07:34;99303.93;;;19.39;30.43
34197;BME280;36594;45.192;5.722;2023-03-03T04:10:22;99318.06;;;19.39;30.44
34197;BME280;36594;45.192;5.722;2023-03-03T04:13:11;99315.63;;;19.40;30.45
34197;BME280;36594;45.192;5.722;2023-03-03T04:16:01;99309.47;;;19.42;30.42
34197;BME280;36594;45.192;5.722;2023-03-03T04:18:50;99310.51;;;19.41;30.43
34197;BME280;36594;45.192;5.722;2023-03-03T04:21:39;99308.92;;;19.42;30.43
34197;BME280;36594;45.192;5.722;2023-03-03T04:24:27;99310.51;;;19.41;30.45
34197;BME280;36594;45.192;5.722;2023-03-03T04:27:16;99318.16;;;19.41;30.44
34197;BME280;36594;45.192;5.722;2023-03-03T04:30:05;99318.16;;;19.41;30.43
34197;BME280;36594;45.192;5.722;2023-03-03T04:32:54;99320.27;;;19.39;30.44
34197;BME280;36594;45.192;5.722;2023-03-03T04:35:44;99318.68;;;19.41;30.43
34197;BME280;36594;45.192;5.722;2023-03-03T04:38:32;99317.31;;;19.41;30.43
34197;BME280;36594;45.192;5.722;2023-03-03T04:41:20;99322.44;;;19.40;30.45
34197;BME280;36594;45.192;5.722;2023-03-03T04:44:10;99316.38;;;19.38;30.49
34197;BME280;36594;45.192;5.722;2023-03-03T04:46:58;99322.16;;;19.39;30.45
34197;BME280;36594;45.192;5.722;2023-03-03T04:49:47;99306.02;;;19.30;30.47
34197;BME280;36594;45.192;5.722;2023-03-03T04:52:36;99317.84;;;19.40;30.47
34197;BME280;36594;45.192;5.722;2023-03-03T04:55:26;99315.11;;;19.40;30.47
34197;BME280;36594;45.192;5.722;2023-03-03T04:58:15;99312.62;;;19.39;30.47
34197;BME280;36594;45.192;5.722;2023-03-03T05:01:06;99315.34;;;19.39;30.43
34197;BME280;36594;45.192;5.722;2023-03-03T05:03:54;99316.70;;;19.39;30.47
34197;BME280;36594;45.192;5.722;2023-03-03T05:06:43;99319.11;;;19.38;30.46
34197;BME280;36594;45.192;5.722;2023-03-03T05:09:31;99320.79;;;19.39;30.39
34197;BME280;36594;45.192;5.722;2023-03-03T05:12:20;99325.17;;;19.40;30.38
34197;BME280;36594;45.192;5.722;2023-03-03T05:15:09;99325.72;;;19.39;30.44
34197;BME280;36594;45.192;5.722;2023-03-03T05:18:00;99323.19;;;19.38;30.46
34197;BME280;36594;45.192;5.722;2023-03-03T05:20:49;99317.74;;;19.38;30.47
34197;BME280;36594;45.192;5.722;2023-03-03T05:23:38;99325.91;;;19.38;30.49
34197;BME280;36594;45.192;5.722;2023-03-03T05:26:26;99323.52;;;19.39;30.48
34197;BME280;36594;45.192;5.722;2023-03-03T05:29:15;99324.03;;;19.38;30.47
34197;BME280;36594;45.192;5.722;2023-03-03T05:32:03;99323.42;;;19.36;30.50
34197;BME280;36594;45.192;5.722;2023-03-03T05:34:52;99322.16;;;19.39;30.48
34197;BME280;36594;45.192;5.722;2023-03-03T05:37:40;99325.63;;;19.37;30.48
34197;BME280;36594;45.192;5.722;2023-03-03T05:40:30;99331.17;;;19.39;30.48
34197;BME280;36594;45.192;5.722;2023-03-03T05:43:18;99327.59;;;19.39;30.48
34197;BME280;36594;45.192;5.722;2023-03-03T05:46:06;99322.16;;;19.39;30.48
34197;BME280;36594;45.192;5.722;2023-03-03T05:48:55;99326.23;;;19.39;30.48
34197;BME280;36594;45.192;5.722;2023-03-03T05:51:44;99321.54;;;19.37;30.49
34197;BME280;36594;45.192;5.722;2023-03-03T05:54:32;99324.55;;;19.38;30.49
34197;BME280;36594;45.192;5.722;2023-03-03T05:57:20;99321.31;;;19.38;30.49
34197;BME280;36594;45.192;5.722;2023-03-03T06:00:10;99321.83;;;19.38;30.48
34197;BME280;36594;45.192;5.722;2023-03-03T06:02:58;99327.89;;;19.40;30.47
34197;BME280;36594;45.192;5.722;2023-03-03T06:05:46;99326.76;;;19.38;30.49
34197;BME280;36594;45.192;5.722;2023-03-03T06:08:35;99324.78;;;19.36;30.51
34197;BME280;36594;45.192;5.722;2023-03-03T06:11:23;99328.96;;;19.39;30.51
34197;BME280;36594;45.192;5.722;2023-03-03T06:14:11;99330.00;;;19.38;30.53
34197;BME280;36594;45.192;5.722;2023-03-03T06:17:00;99337.42;;;19.40;30.48
34197;BME280;36594;45.192;5.722;2023-03-03T06:19:48;99339.34;;;19.39;30.49
34197;BME280;36594;45.192;5.722;2023-03-03T06:22:37;99339.63;;;19.40;30.51
34197;BME280;36594;45.192;5.722;2023-03-03T06:25:26;99337.75;;;19.41;30.48
34197;BME280;36594;45.192;5.722;2023-03-03T06:28:15;99348.03;;;19.39;30.54
34197;BME280;36594;45.192;5.722;2023-03-03T06:31:03;99348.03;;;19.39;30.50
34197;BME280;36594;45.192;5.722;2023-03-03T06:33:51;99352.95;;;19.39;30.54
34197;BME280;36594;45.192;5.722;2023-03-03T06:36:40;99354.09;;;19.41;30.50
34197;BME280;36594;45.192;5.722;2023-03-03T06:39:28;99359.77;;;19.39;30.49
34197;BME280;36594;45.192;5.722;2023-03-03T06:42:16;99363.01;;;19.39;30.52
34197;BME280;36594;45.192;5.722;2023-03-03T06:45:06;99368.75;;;19.40;30.52
34197;BME280;36594;45.192;5.722;2023-03-03T06:47:55;99364.98;;;19.41;30.48
34197;BME280;36594;45.192;5.722;2023-03-03T06:50:44;99369.30;;;19.39;30.48
34197;BME280;36594;45.192;5.722;2023-03-03T06:53:32;99371.18;;;19.39;30.48
34197;BME280;36594;45.192;5.722;2023-03-03T06:56:23;99372.83;;;19.40;30.50
34197;BME280;36594;45.192;5.722;2023-03-03T06:59:18;99372.31;;;19.40;30.49
34197;BME280;36594;45.192;5.722;2023-03-03T07:02:15;99383.44;;;19.39;30.51
34197;BME280;36594;45.192;5.722;2023-03-03T07:04:58;99383.11;;;19.38;30.54
34197;BME280;36594;45.192;5.722;2023-03-03T07:07:47;99390.25;;;19.39;30.56
34197;BME280;36594;45.192;5.722;2023-03-03T07:10:35;99389.92;;;19.38;30.52
34197;BME280;36594;45.192;5.722;2023-03-03T07:13:26;99385.09;;;19.40;30.52
34197;BME280;36594;45.192;5.722;2023-03-03T07:16:16;99385.41;;;19.41;30.50
34197;BME280;36594;45.192;5.722;2023-03-03T07:19:13;99387.30;;;19.40;30.49
34197;BME280;36594;45.192;5.722;2023-03-03T07:21:57;99386.67;;;19.38;30.54
34197;BME280;36594;45.192;5.722;2023-03-03T07:24:48;99394.33;;;19.39;30.57
34197;BME280;36594;45.192;5.722;2023-03-03T07:27:38;99395.46;;;19.40;30.56
34197;BME280;36594;45.192;5.722;2023-03-03T07:30:29;99393.71;;;19.37;30.57
34197;BME280;36594;45.192;5.722;2023-03-03T07:33:34;99394.95;;;19.41;30.57
34197;BME280;36594;45.192;5.722;2023-03-03T07:36:26;99392.74;;;19.40;30.57
34197;BME280;36594;45.192;5.722;2023-03-03T07:39:35;99397.16;;;19.41;30.54
34197;BME280;36594;45.192;5.722;2023-03-03T07:45:33;99394.84;;;19.38;30.59
34197;BME280;36594;45.192;5.722;2023-03-03T07:48:29;99397.47;;;19.36;30.61
34197;BME280;36594;45.192;5.722;2023-03-03T07:57:26;99399.03;;;19.41;30.59
34197;BME280;36594;45.192;5.722;2023-03-03T08:03:14;99408.23;;;19.40;30.61
34197;BME280;36594;45.192;5.722;2023-03-03T08:06:09;99410.97;;;19.40;30.61
34197;BME280;36594;45.192;5.722;2023-03-03T08:08:52;99415.15;;;19.42;30.58
34197;BME280;36594;45.192;5.722;2023-03-03T08:12:00;99416.73;;;19.41;30.62
34197;BME280;36594;45.192;5.722;2023-03-03T08:14:44;99420.82;;;19.41;30.59
34197;BME280;36594;45.192;5.722;2023-03-03T08:17:35;99415.70;;;19.42;30.58
34197;BME280;36594;45.192;5.722;2023-03-03T08:20:38;99415.15;;;19.42;30.57
34197;BME280;36594;45.192;5.722;2023-03-03T08:23:25;99415.25;;;19.45;30.57
34197;BME280;36594;45.192;5.722;2023-03-03T08:26:14;99417.97;;;19.45;30.59
34197;BME280;36594;45.192;5.722;2023-03-03T08:29:02;99414.63;;;19.43;30.58
34197;BME280;36594;45.192;5.722;2023-03-03T08:31:51;99412.98;;;19.42;30.62
34197;BME280;36594;45.192;5.722;2023-03-03T08:34:39;99408.66;;;19.43;30.64
34197;BME280;36594;45.192;5.722;2023-03-03T08:37:27;99409.80;;;19.45;30.54
34197;BME280;36594;45.192;5.722;2023-03-03T08:40:16;99409.80;;;19.45;30.54
34197;BME280;36594;45.192;5.722;2023-03-03T08:43:04;99408.76;;;19.46;30.62
34197;BME280;36594;45.192;5.722;2023-03-03T08:45:56;99407.39;;;19.46;30.55
34197;BME280;36594;45.192;5.722;2023-03-03T08:48:44;99412.84;;;19.46;30.58
34197;BME280;36594;45.192;5.722;2023-03-03T08:51:33;99404.34;;;19.45;30.60
34197;BME280;36594;45.192;5.722;2023-03-03T08:54:21;99417.97;;;19.45;30.64
34197;BME280;36594;45.192;5.722;2023-03-03T08:57:09;99415.25;;;19.45;30.57
34197;BME280;36594;45.192;5.722;2023-03-03T08:59:58;99419.95;;;19.47;30.64
34197;BME280;36594;45.192;5.722;2023-03-03T09:02:46;99417.77;;;19.46;30.62
34197;BME280;36594;45.192;5.722;2023-03-03T09:05:38;99424.65;;;19.49;30.57
34197;BME280;36594;45.192;5.722;2023-03-03T09:08:26;99420.17;;;19.45;30.62
34197;BME280;36594;45.192;5.722;2023-03-03T09:11:23;99421.31;;;19.47;30.58
34197;BME280;36594;45.192;5.722;2023-03-03T09:14:17;99418.06;;;19.47;30.62
34197;BME280;36594;45.192;5.722;2023-03-03T09:17:21;99424.36;;;19.48;30.64
34197;BME280;36594;45.192;5.722;2023-03-03T09:23:29;99427.50;;;19.45;30.66
34197;BME280;36594;45.192;5.722;2023-03-03T09:26:43;99426.14;;;19.45;30.69
34197;BME280;36594;45.192;5.722;2023-03-03T09:29:30;99431.59;;;19.45;30.68
34197;BME280;36594;45.192;5.722;2023-03-03T09:32:33;99430.97;;;19.43;30.72
34197;BME280;36594;45.192;5.722;2023-03-03T09:35:37;99436.42;;;19.43;30.70
34197;BME280;36594;45.192;5.722;2023-03-03T09:38:32;99431.10;;;19.39;30.72
34197;BME280;36594;45.192;5.722;2023-03-03T09:47:59;99434.02;;;19.44;30.77
34197;BME280;36594;45.192;5.722;2023-03-03T09:53:59;99434.77;;;19.42;30.77
34197;BME280;36594;45.192;5.722;2023-03-03T09:57:16;99443.00;;;19.44;30.77
34197;BME280;36594;45.192;5.722;2023-03-03T10:03:55;99443.55;;;19.44;30.79
34197;BME280;36594;45.192;5.722;2023-03-03T10:06:48;99440.92;;;19.40;30.81
34197;BME280;36594;45.192;5.722;2023-03-03T10:19:01;99448.55;;;19.47;30.78
34197;BME280;36594;45.192;5.722;2023-03-03T10:28:01;99457.34;;;19.49;30.76
34197;BME280;36594;45.192;5.722;2023-03-03T10:31:06;99452.11;;;19.47;30.78
34197;BME280;36594;45.192;5.722;2023-03-03T10:34:52;99448.25;;;19.46;30.78
34197;BME280;36594;45.192;5.722;2023-03-03T10:43:22;99452.54;;;19.51;30.76
34197;BME280;36594;45.192;5.722;2023-03-03T10:46:24;99454.32;;;19.48;30.78
34197;BME280;36594;45.192;5.722;2023-03-03T10:49:31;99452.22;;;19.50;30.74
34197;BME280;36594;45.192;5.722;2023-03-03T10:52:37;99452.22;;;19.50;30.76
34197;BME280;36594;45.192;5.722;2023-03-03T10:58:34;99442.16;;;19.50;30.77
34197;BME280;36594;45.192;5.722;2023-03-03T11:04:45;99444.46;;;19.47;30.82
34197;BME280;36594;45.192;5.722;2023-03-03T11:07:45;99440.70;;;19.48;30.81
34197;BME280;36594;45.192;5.722;2023-03-03T11:10:53;99447.91;;;19.51;30.80
34197;BME280;36594;45.192;5.722;2023-03-03T11:22:57;99433.34;;;19.55;30.74
34197;BME280;36594;45.192;5.722;2023-03-03T11:25:49;99428.93;;;19.54;30.75
34197;BME280;36594;45.192;5.722;2023-03-03T11:32:07;99419.39;;;19.54;30.77
34197;BME280;36594;45.192;5.722;2023-03-03T11:41:00;99416.38;;;19.53;30.76
34197;BME280;36594;45.192;5.722;2023-03-03T11:43:51;99402.75;;;19.53;30.74
34197;BME280;36594;45.192;5.722;2023-03-03T11:46:47;99403.59;;;19.53;30.78
34197;BME280;36594;45.192;5.722;2023-03-03T11:49:46;99401.48;;;19.55;30.71
34197;BME280;36594;45.192;5.722;2023-03-03T11:52:50;99401.26;;;19.57;30.71
34197;BME280;36594;45.192;5.722;2023-03-03T11:55:44;99396.84;;;19.56;30.72
34197;BME280;36594;45.192;5.722;2023-03-03T12:01:56;99392.05;;;19.58;30.71
34197;BME280;36594;45.192;5.722;2023-03-03T12:04:58;99383.87;;;19.58;30.70
34197;BME280;36594;45.192;5.722;2023-03-03T12:07:56;99384.91;;;19.57;30.72
34197;BME280;36594;45.192;5.722;2023-03-03T12:14:06;99376.97;;;19.55;30.73
34197;BME280;36594;45.192;5.722;2023-03-03T12:20:12;99382.84;;;19.52;30.77
34197;BME280;36594;45.192;5.722;2023-03-03T12:23:16;99372.04;;;19.55;30.72
34197;BME280;36594;45.192;5.722;2023-03-03T12:28:58;99365.52;;;19.56;30.71
34197;BME280;36594;45.192;5.722;2023-03-03T12:34:54;99363.34;;;19.55;30.72
34197;BME280;36594;45.192;5.722;2023-03-03T12:41:02;99354.52;;;19.60;30.67
34197;BME280;36594;45.192;5.722;2023-03-03T12:44:07;99351.18;;;19.58;30.67
34197;BME280;36594;45.192;5.722;2023-03-03T12:47:05;99353.06;;;19.57;30.67
34197;BME280;36594;45.192;5.722;2023-03-03T12:50:02;99351.38;;;19.56;30.73
34197;BME280;36594;45.192;5.722;2023-03-03T12:55:55;99341.41;;;19.59;30.70
34197;BME280;36594;45.192;5.722;2023-03-03T13:11:11;99343.11;;;19.54;30.74
34197;BME280;36594;45.192;5.722;2023-03-03T13:14:22;99342.30;;;19.53;30.73
34197;BME280;36594;45.192;5.722;2023-03-03T13:19:51;99339.87;;;19.54;30.76
34197;BME280;36594;45.192;5.722;2023-03-03T13:25:56;99340.71;;;19.55;30.71
34197;BME280;36594;45.192;5.722;2023-03-03T13:28:44;99346.45;;;19.56;30.68
34197;BME280;36594;45.192;5.722;2023-03-03T13:31:34;99340.71;;;19.55;30.67
34197;BME280;36594;45.192;5.722;2023-03-03T13:34:32;99338.27;;;19.56;30.70
34197;BME280;36594;45.192;5.722;2023-03-03T13:40:26;99337.14;;;19.54;30.71
34197;BME280;36594;45.192;5.722;2023-03-03T13:43:25;99333.89;;;19.55;30.67
34197;BME280;36594;45.192;5.722;2023-03-03T13:52:12;99337.14;;;19.54;30.64
34197;BME280;36594;45.192;5.722;2023-03-03T13:55:20;99339.87;;;19.54;30.68
34197;BME280;36594;45.192;5.722;2023-03-03T14:01:13;99336.85;;;19.53;30.71
34197;BME280;36594;45.192;5.722;2023-03-03T14:07:16;99341.84;;;19.56;30.68
34197;BME280;36594;45.192;5.722;2023-03-03T14:10:08;99332.53;;;19.55;30.67
34197;BME280;36594;45.192;5.722;2023-03-03T14:16:07;99339.64;;;19.56;30.66
34197;BME280;36594;45.192;5.722;2023-03-03T14:22:29;99338.59;;;19.57;30.66
34197;BME280;36594;45.192;5.722;2023-03-03T14:25:15;99334.42;;;19.54;30.67
34197;BME280;36594;45.192;5.722;2023-03-03T14:28:15;99330.23;;;19.52;30.67
34197;BME280;36594;45.192;5.722;2023-03-03T14:31:01;99329.72;;;19.52;30.71
34197;BME280;36594;45.192;5.722;2023-03-03T14:34:43;99326.99;;;19.52;30.65
34197;BME280;36594;45.192;5.722;2023-03-03T14:36:56;99329.81;;;19.55;30.70
34197;BME280;36594;45.192;5.722;2023-03-03T14:39:44;99326.77;;;19.54;30.67
34197;BME280;36594;45.192;5.722;2023-03-03T14:42:39;99328.13;;;19.54;30.70
34197;BME280;36594;45.192;5.722;2023-03-03T14:48:22;99326.25;;;19.54;30.66
34197;BME280;36594;45.192;5.722;2023-03-03T14:51:40;99321.92;;;19.56;30.69
34197;BME280;36594;45.192;5.722;2023-03-03T14:54:37;99317.55;;;19.55;30.62
34197;BME280;36594;45.192;5.722;2023-03-03T14:57:39;99317.78;;;19.53;30.67
34197;BME280;36594;45.192;5.722;2023-03-03T15:00:35;99317.23;;;19.54;30.69
34197;BME280;36594;45.192;5.722;2023-03-03T15:03:28;99315.25;;;19.52;30.67
34197;BME280;36594;45.192;5.722;2023-03-03T15:06:48;99314.83;;;19.55;30.69
34197;BME280;36594;45.192;5.722;2023-03-03T15:09:32;99317.13;;;19.58;30.65
34197;BME280;36594;45.192;5.722;2023-03-03T15:12:25;99311.78;;;19.54;30.68
34197;BME280;36594;45.192;5.722;2023-03-03T15:15:18;99311.69;;;19.51;30.72
34197;BME280;36594;45.192;5.722;2023-03-03T15:18:09;99312.39;;;19.56;30.67
34197;BME280;36594;45.192;5.722;2023-03-03T15:21:10;99310.42;;;19.54;30.65
34197;BME280;36594;45.192;5.722;2023-03-03T15:24:14;99300.45;;;19.57;30.63
34197;BME280;36594;45.192;5.722;2023-03-03T15:27:04;99306.52;;;19.59;30.58
34197;BME280;36594;45.192;5.722;2023-03-03T15:30:02;99300.45;;;19.57;30.60
34197;BME280;36594;45.192;5.722;2023-03-03T15:33:00;99305.30;;;19.55;30.63
34197;BME280;36594;45.192;5.722;2023-03-03T15:35:53;99299.84;;;19.55;30.62
34197;BME280;36594;45.192;5.722;2023-03-03T15:38:54;99304.55;;;19.57;30.60
34197;BME280;36594;45.192;5.722;2023-03-03T15:44:58;99306.33;;;19.54;30.64
34197;BME280;36594;45.192;5.722;2023-03-03T15:51:30;;;;19.54;30.62
34197;BME280;36594;45.192;5.722;2023-03-03T16:00:50;99302.70;;;19.51;30.67
34197;BME280;36594;45.192;5.722;2023-03-03T16:10:00;99304.78;;;19.49;30.67
34197;BME280;36594;45.192;5.722;2023-03-03T16:13:01;99301.34;;;19.51;30.64
34197;BME280;36594;45.192;5.722;2023-03-03T16:16:15;99310.23;;;19.49;30.65
34197;BME280;36594;45.192;5.722;2023-03-03T16:19:09;99306.47;;;19.50;30.72
34197;BME280;36594;45.192;5.722;2023-03-03T16:25:25;99305.43;;;19.51;30.67
34197;BME280;36594;45.192;5.722;2023-03-03T16:28:15;99310.17;;;19.46;30.66
34197;BME280;36594;45.192;5.722;2023-03-03T16:34:12;99312.53;;;19.52;30.64
34197;BME280;36594;45.192;5.722;2023-03-03T16:40:28;99324.79;;;19.52;30.62
34197;BME280;36594;45.192;5.722;2023-03-03T16:46:46;99324.17;;;19.50;30.62
34197;BME280;36594;45.192;5.722;2023-03-03T16:49:49;99331.13;;;19.46;30.66
34197;BME280;36594;45.192;5.722;2023-03-03T16:52:42;99338.77;;;19.46;30.64
34197;BME280;36594;45.192;5.722;2023-03-03T16:56:26;99339.91;;;19.48;30.66
34197;BME280;36594;45.192;5.722;2023-03-03T16:58:44;99344.93;;;19.51;30.60
34197;BME280;36594;45.192;5.722;2023-03-03T17:01:49;99349.02;;;19.51;30.61
34197;BME280;36594;45.192;5.722;2023-03-03T17:04:45;99356.12;;;19.52;30.54
34197;BME280;36594;45.192;5.722;2023-03-03T17:07:43;99361.19;;;19.48;30.56
34197;BME280;36594;45.192;5.722;2023-03-03T17:10:58;99355.50;;;19.50;30.60
34197;BME280;36594;45.192;5.722;2023-03-03T17:17:03;99367.15;;;19.48;30.65
34197;BME280;36594;45.192;5.722;2023-03-03T17:23:01;99377.53;;;19.48;30.60
34197;BME280;36594;45.192;5.722;2023-03-03T17:38:17;99390.21;;;19.45;30.63
34197;BME280;36594;45.192;5.722;2023-03-03T17:47:09;99393.36;;;19.42;30.62
34197;BME280;36594;45.192;5.722;2023-03-03T17:53:17;99400.88;;;19.47;30.61
34197;BME280;36594;45.192;5.722;2023-03-03T17:56:26;99401.72;;;19.47;30.60
34197;BME280;36594;45.192;5.722;2023-03-03T17:59:21;99411.77;;;19.47;30.57
34197;BME280;36594;45.192;5.722;2023-03-03T18:05:30;99414.11;;;19.43;30.58
34197;BME280;36594;45.192;5.722;2023-03-03T18:08:48;99419.23;;;19.42;30.61
34197;BME280;36594;45.192;5.722;2023-03-03T18:15:45;99431.30;;;19.44;30.62
34197;BME280;36594;45.192;5.722;2023-03-03T18:21:13;99433.50;;;19.38;30.65
34197;BME280;36594;45.192;5.722;2023-03-03T18:33:10;99446.28;;;19.44;30.61
34197;BME280;36594;45.192;5.722;2023-03-03T18:36:14;99447.64;;;19.44;30.56
34197;BME280;36594;45.192;5.722;2023-03-03T18:39:04;99438.91;;;19.44;30.59
34197;BME280;36594;45.192;5.722;2023-03-03T18:42:26;99447.22;;;19.40;30.62
34197;BME280;36594;45.192;5.722;2023-03-03T18:48:13;99442.19;;;19.44;30.59
34197;BME280;36594;45.192;5.722;2023-03-03T18:51:06;99447.02;;;19.42;30.59
34197;BME280;36594;45.192;5.722;2023-03-03T18:57:14;99452.14;;;19.41;30.58
34197;BME280;36594;45.192;5.722;2023-03-03T19:00:15;99450.45;;;19.40;30.60
34197;BME280;36594;45.192;5.722;2023-03-03T19:03:07;99458.02;;;19.38;30.60
34197;BME280;36594;45.192;5.722;2023-03-03T19:05:55;99463.04;;;19.41;30.61
34197;BME280;36594;45.192;5.722;2023-03-03T19:08:53;99458.11;;;19.40;30.61
34197;BME280;36594;45.192;5.722;2023-03-03T19:11:51;99460.71;;;19.44;30.60
34197;BME280;36594;45.192;5.722;2023-03-03T19:14:47;99456.84;;;19.43;30.55